This is the latest recevied weather packets stored in our database for station/object LEMD. If no packets are shown the sender has not sent any weather packets the latest 10 day(s).
| Time | Temp. | Humidity | Pressure | Rain* | Wind** | Luminosity | Snow |
|---|---|---|---|---|---|---|---|
| 1777613404 | 8.89° C | 100% | 1018 hPa | - | - | - | - |
| 1777611604 | 8.89° C | 100% | 1018 hPa | - | - | - | - |
| 1777609804 | 8.89° C | 93% | 1018 hPa | - | - | - | - |
| 1777608904 | 8.89° C | 93% | 1018 hPa | - | - | - | - |
| 1777608005 | 10° C | 87% | 1018 hPa | - | - | - | - |
| 1777607104 | 10° C | 87% | 1018 hPa | - | - | - | - |
| 1777601705 | 11.11° C | 81% | 1018 hPa | - | - | - | - |
| 1777580104 | 17.22° C | 51% | 1016 hPa | - | - | - | - |
| 1777579205 | 17.78° C | 48% | 1016 hPa | - | - | - | - |
| 1777574704 | 20° C | 42% | 1016 hPa | - | - | - | - |
| 1777572904 | 21.11° C | 37% | 1016 hPa | - | - | - | - |
| 1777566604 | 21.11° C | 35% | 1016 hPa | - | - | - | - |
| 1777565704 | 21.11° C | 35% | 1016 hPa | - | - | - | - |
| 1777554905 | 20° C | 40% | 1017 hPa | - | - | - | - |
| 1777554005 | 18.89° C | 42% | 1017 hPa | - | - | - | - |
| 1777551304 | 18.89° C | 45% | 1017 hPa | - | - | - | - |
| 1777550405 | 18.89° C | 42% | 1017 hPa | - | - | - | - |
| 1777545005 | 17.78° C | 52% | 1017 hPa | - | - | - | - |
| 1777544104 | 17.78° C | 52% | 1017 hPa | - | - | - | - |
| 1777540503 | 16.11° C | 67% | 1017 hPa | - | - | - | - |
| 1777536904 | 13.89° C | 76% | 1017 hPa | - | - | - | - |
| 1777535104 | 12.78° C | 82% | 1016 hPa | - | - | - | - |
| 1777532405 | 12.22° C | 100% | 1016 hPa | - | - | - | - |
| 1777529705 | 11.11° C | 100% | 1015 hPa | - | - | - | - |
| 1777528805 | 11.11° C | 93% | 1015 hPa | - | - | - | - |
* Rain since midnight (hover to see other rain measurements)
** Current wind speed in m/s (hover to see current wind gust speed)